sensor_id;sensor_type;location;lat;lon;timestamp;temperature;humidity
16267;DHT22;8241;48.786;9.250;2022-08-02T00:00:11;20.20;99.90
16267;DHT22;8241;48.786;9.250;2022-08-02T00:02:38;20.20;99.90
16267;DHT22;8241;48.786;9.250;2022-08-02T00:05:06;20.00;99.90
16267;DHT22;8241;48.786;9.250;2022-08-02T00:07:35;20.00;99.90
16267;DHT22;8241;48.786;9.250;2022-08-02T00:10:03;19.80;99.90
16267;DHT22;8241;48.786;9.250;2022-08-02T00:12:30;19.80;99.90
16267;DHT22;8241;48.786;9.250;2022-08-02T00:14:58;19.90;99.90
16267;DHT22;8241;48.786;9.250;2022-08-02T00:17:24;19.80;99.90
16267;DHT22;8241;48.786;9.250;2022-08-02T00:19:51;20.20;99.90
16267;DHT22;8241;48.786;9.250;2022-08-02T00:22:18;20.30;99.90
16267;DHT22;8241;48.786;9.250;2022-08-02T00:24:46;20.20;99.90
16267;DHT22;8241;48.786;9.250;2022-08-02T00:27:13;20.10;99.90
16267;DHT22;8241;48.786;9.250;2022-08-02T00:29:40;20.30;99.90
16267;DHT22;8241;48.786;9.250;2022-08-02T00:32:07;20.40;99.90
16267;DHT22;8241;48.786;9.250;2022-08-02T00:34:34;20.40;99.90
16267;DHT22;8241;48.786;9.250;2022-08-02T00:37:01;20.50;99.90
16267;DHT22;8241;48.786;9.250;2022-08-02T00:39:27;20.50;99.90
16267;DHT22;8241;48.786;9.250;2022-08-02T00:41:57;20.70;99.90
16267;DHT22;8241;48.786;9.250;2022-08-02T00:44:24;20.70;99.90
16267;DHT22;8241;48.786;9.250;2022-08-02T00:46:50;20.60;99.90
16267;DHT22;8241;48.786;9.250;2022-08-02T00:49:17;20.50;99.90
16267;DHT22;8241;48.786;9.250;2022-08-02T00:51:44;20.50;99.90
16267;DHT22;8241;48.786;9.250;2022-08-02T00:54:16;20.60;99.90
16267;DHT22;8241;48.786;9.250;2022-08-02T00:56:43;20.60;99.90
16267;DHT22;8241;48.786;9.250;2022-08-02T00:59:11;20.60;99.90
16267;DHT22;8241;48.786;9.250;2022-08-02T01:01:38;20.50;99.90
16267;DHT22;8241;48.786;9.250;2022-08-02T01:04:07;20.50;99.90
16267;DHT22;8241;48.786;9.250;2022-08-02T01:06:34;20.60;99.90
16267;DHT22;8241;48.786;9.250;2022-08-02T01:09:03;20.60;99.90
16267;DHT22;8241;48.786;9.250;2022-08-02T01:11:30;20.60;99.90
16267;DHT22;8241;48.786;9.250;2022-08-02T01:13:59;20.50;99.90
16267;DHT22;8241;48.786;9.250;2022-08-02T01:16:34;20.40;99.90
16267;DHT22;8241;48.786;9.250;2022-08-02T01:19:09;20.60;99.90
16267;DHT22;8241;48.786;9.250;2022-08-02T01:21:48;20.60;99.90
16267;DHT22;8241;48.786;9.250;2022-08-02T01:24:29;20.60;99.90
16267;DHT22;8241;48.786;9.250;2022-08-02T01:27:10;20.50;99.90
16267;DHT22;8241;48.786;9.250;2022-08-02T01:29:49;20.50;99.90
16267;DHT22;8241;48.786;9.250;2022-08-02T01:32:18;20.50;99.90
16267;DHT22;8241;48.786;9.250;2022-08-02T01:34:53;20.40;99.90
16267;DHT22;8241;48.786;9.250;2022-08-02T01:37:25;20.40;99.90
16267;DHT22;8241;48.786;9.250;2022-08-02T01:39:56;20.50;99.90
16267;DHT22;8241;48.786;9.250;2022-08-02T01:42:27;20.50;99.90
16267;DHT22;8241;48.786;9.250;2022-08-02T01:45:02;20.50;99.90
16267;DHT22;8241;48.786;9.250;2022-08-02T01:47:32;20.50;99.90
16267;DHT22;8241;48.786;9.250;2022-08-02T01:50:02;20.40;99.90
16267;DHT22;8241;48.786;9.250;2022-08-02T01:52:35;20.40;99.90
16267;DHT22;8241;48.786;9.250;2022-08-02T01:55:07;20.30;99.90
16267;DHT22;8241;48.786;9.250;2022-08-02T01:57:38;20.30;99.90
16267;DHT22;8241;48.786;9.250;2022-08-02T02:00:08;20.30;99.90
16267;DHT22;8241;48.786;9.250;2022-08-02T02:02:39;20.30;99.90
16267;DHT22;8241;48.786;9.250;2022-08-02T02:05:11;20.30;99.90
16267;DHT22;8241;48.786;9.250;2022-08-02T02:07:39;20.30;99.90
16267;DHT22;8241;48.786;9.250;2022-08-02T02:10:11;20.20;99.90
16267;DHT22;8241;48.786;9.250;2022-08-02T02:12:40;20.20;99.90
16267;DHT22;8241;48.786;9.250;2022-08-02T02:15:11;20.20;99.90
16267;DHT22;8241;48.786;9.250;2022-08-02T02:17:41;20.10;99.90
16267;DHT22;8241;48.786;9.250;2022-08-02T02:20:10;20.10;99.90
16267;DHT22;8241;48.786;9.250;2022-08-02T02:22:39;20.00;99.90
16267;DHT22;8241;48.786;9.250;2022-08-02T02:25:07;20.20;99.90
16267;DHT22;8241;48.786;9.250;2022-08-02T02:27:35;20.40;99.90
16267;DHT22;8241;48.786;9.250;2022-08-02T02:30:04;20.20;99.90
16267;DHT22;8241;48.786;9.250;2022-08-02T02:32:34;20.10;99.90
16267;DHT22;8241;48.786;9.250;2022-08-02T02:35:02;19.80;99.90
16267;DHT22;8241;48.786;9.250;2022-08-02T02:37:31;19.90;99.90
16267;DHT22;8241;48.786;9.250;2022-08-02T02:39:59;19.80;99.90
16267;DHT22;8241;48.786;9.250;2022-08-02T02:42:29;19.80;99.90
16267;DHT22;8241;48.786;9.250;2022-08-02T02:44:57;19.80;99.90
16267;DHT22;8241;48.786;9.250;2022-08-02T02:47:26;19.80;99.90
16267;DHT22;8241;48.786;9.250;2022-08-02T02:49:56;19.90;99.90
16267;DHT22;8241;48.786;9.250;2022-08-02T02:52:23;19.90;99.90
16267;DHT22;8241;48.786;9.250;2022-08-02T02:54:51;19.70;99.90
16267;DHT22;8241;48.786;9.250;2022-08-02T02:57:19;19.90;99.90
16267;DHT22;8241;48.786;9.250;2022-08-02T02:59:48;19.90;99.90
16267;DHT22;8241;48.786;9.250;2022-08-02T03:02:15;19.80;99.90
16267;DHT22;8241;48.786;9.250;2022-08-02T03:04:43;19.80;99.90
16267;DHT22;8241;48.786;9.250;2022-08-02T03:07:11;19.90;99.90
16267;DHT22;8241;48.786;9.250;2022-08-02T03:09:38;19.80;99.90
16267;DHT22;8241;48.786;9.250;2022-08-02T03:12:05;19.70;99.90
16267;DHT22;8241;48.786;9.250;2022-08-02T03:14:38;19.80;99.90
16267;DHT22;8241;48.786;9.250;2022-08-02T03:17:05;19.80;99.90
16267;DHT22;8241;48.786;9.250;2022-08-02T03:19:35;19.80;99.90
16267;DHT22;8241;48.786;9.250;2022-08-02T03:22:02;19.80;99.90
16267;DHT22;8241;48.786;9.250;2022-08-02T03:24:30;19.70;99.90
16267;DHT22;8241;48.786;9.250;2022-08-02T03:26:57;19.60;99.90
16267;DHT22;8241;48.786;9.250;2022-08-02T03:29:24;19.50;99.90
16267;DHT22;8241;48.786;9.250;2022-08-02T03:31:52;19.70;99.90
16267;DHT22;8241;48.786;9.250;2022-08-02T03:34:19;19.70;99.90
16267;DHT22;8241;48.786;9.250;2022-08-02T03:36:48;19.60;99.90
16267;DHT22;8241;48.786;9.250;2022-08-02T03:39:19;19.70;99.90
16267;DHT22;8241;48.786;9.250;2022-08-02T03:41:49;19.50;99.90
16267;DHT22;8241;48.786;9.250;2022-08-02T03:44:16;19.50;99.90
16267;DHT22;8241;48.786;9.250;2022-08-02T03:46:43;19.30;99.90
16267;DHT22;8241;48.786;9.250;2022-08-02T03:49:14;19.20;99.90
16267;DHT22;8241;48.786;9.250;2022-08-02T03:51:43;19.10;99.90
16267;DHT22;8241;48.786;9.250;2022-08-02T03:54:10;19.10;99.90
16267;DHT22;8241;48.786;9.250;2022-08-02T03:56:38;19.00;99.90
16267;DHT22;8241;48.786;9.250;2022-08-02T03:59:11;19.10;99.90
16267;DHT22;8241;48.786;9.250;2022-08-02T04:01:38;19.00;99.90
16267;DHT22;8241;48.786;9.250;2022-08-02T04:04:05;19.20;99.90
16267;DHT22;8241;48.786;9.250;2022-08-02T04:06:33;19.30;99.90
16267;DHT22;8241;48.786;9.250;2022-08-02T04:09:00;19.40;99.90
16267;DHT22;8241;48.786;9.250;2022-08-02T04:11:27;19.20;99.90
16267;DHT22;8241;48.786;9.250;2022-08-02T04:13:57;18.80;99.90
16267;DHT22;8241;48.786;9.250;2022-08-02T04:16:41;18.80;99.90
16267;DHT22;8241;48.786;9.250;2022-08-02T04:19:16;18.70;99.90
16267;DHT22;8241;48.786;9.250;2022-08-02T04:21:45;18.90;99.90
16267;DHT22;8241;48.786;9.250;2022-08-02T04:24:15;19.10;99.90
16267;DHT22;8241;48.786;9.250;2022-08-02T04:26:43;19.30;99.90
16267;DHT22;8241;48.786;9.250;2022-08-02T04:29:10;19.20;99.90
16267;DHT22;8241;48.786;9.250;2022-08-02T04:31:41;19.30;99.90
16267;DHT22;8241;48.786;9.250;2022-08-02T04:34:08;19.30;99.90
16267;DHT22;8241;48.786;9.250;2022-08-02T04:36:37;19.40;99.90
16267;DHT22;8241;48.786;9.250;2022-08-02T04:39:03;19.30;99.90
16267;DHT22;8241;48.786;9.250;2022-08-02T04:41:38;19.50;99.90
16267;DHT22;8241;48.786;9.250;2022-08-02T04:44:05;19.30;99.90
16267;DHT22;8241;48.786;9.250;2022-08-02T04:46:40;19.10;99.90
16267;DHT22;8241;48.786;9.250;2022-08-02T04:49:08;19.20;99.90
16267;DHT22;8241;48.786;9.250;2022-08-02T04:51:36;19.20;99.90
16267;DHT22;8241;48.786;9.250;2022-08-02T04:54:04;19.20;99.90
16267;DHT22;8241;48.786;9.250;2022-08-02T04:56:31;19.20;99.90
16267;DHT22;8241;48.786;9.250;2022-08-02T04:58:59;19.30;99.90
16267;DHT22;8241;48.786;9.250;2022-08-02T05:01:26;19.30;99.90
16267;DHT22;8241;48.786;9.250;2022-08-02T05:03:54;19.30;99.90
16267;DHT22;8241;48.786;9.250;2022-08-02T05:06:21;19.40;99.90
16267;DHT22;8241;48.786;9.250;2022-08-02T05:08:51;19.40;99.90
16267;DHT22;8241;48.786;9.250;2022-08-02T05:11:18;19.40;99.90
16267;DHT22;8241;48.786;9.250;2022-08-02T05:13:45;19.40;99.90
16267;DHT22;8241;48.786;9.250;2022-08-02T05:16:20;19.40;99.90
16267;DHT22;8241;48.786;9.250;2022-08-02T05:18:47;19.70;99.90
16267;DHT22;8241;48.786;9.250;2022-08-02T05:21:17;19.70;99.90
16267;DHT22;8241;48.786;9.250;2022-08-02T05:23:50;19.80;99.90
16267;DHT22;8241;48.786;9.250;2022-08-02T05:26:20;19.70;99.90
16267;DHT22;8241;48.786;9.250;2022-08-02T05:28:46;19.60;99.90
16267;DHT22;8241;48.786;9.250;2022-08-02T05:31:14;19.80;99.90
16267;DHT22;8241;48.786;9.250;2022-08-02T05:33:46;19.90;99.90
16267;DHT22;8241;48.786;9.250;2022-08-02T05:36:13;19.60;99.90
16267;DHT22;8241;48.786;9.250;2022-08-02T05:38:41;19.70;99.90
16267;DHT22;8241;48.786;9.250;2022-08-02T05:41:08;19.70;99.90
16267;DHT22;8241;48.786;9.250;2022-08-02T05:43:35;19.60;99.90
16267;DHT22;8241;48.786;9.250;2022-08-02T05:46:02;19.90;99.90
16267;DHT22;8241;48.786;9.250;2022-08-02T05:48:29;19.90;99.90
16267;DHT22;8241;48.786;9.250;2022-08-02T05:51:03;20.10;99.90
16267;DHT22;8241;48.786;9.250;2022-08-02T05:53:35;20.00;99.90
16267;DHT22;8241;48.786;9.250;2022-08-02T05:56:16;20.00;99.90
16267;DHT22;8241;48.786;9.250;2022-08-02T05:58:51;19.80;99.90
16267;DHT22;8241;48.786;9.250;2022-08-02T06:01:26;19.80;99.90
16267;DHT22;8241;48.786;9.250;2022-08-02T06:03:56;20.00;99.90
16267;DHT22;8241;48.786;9.250;2022-08-02T06:06:25;20.10;99.90
16267;DHT22;8241;48.786;9.250;2022-08-02T06:08:56;20.20;99.90
16267;DHT22;8241;48.786;9.250;2022-08-02T06:11:33;20.10;99.90
16267;DHT22;8241;48.786;9.250;2022-08-02T06:14:01;20.10;99.90
16267;DHT22;8241;48.786;9.250;2022-08-02T06:16:36;20.30;99.90
16267;DHT22;8241;48.786;9.250;2022-08-02T06:19:04;20.40;99.90
16267;DHT22;8241;48.786;9.250;2022-08-02T06:21:42;20.40;99.90
16267;DHT22;8241;48.786;9.250;2022-08-02T06:24:09;20.50;99.90
16267;DHT22;8241;48.786;9.250;2022-08-02T06:26:40;20.60;99.90
16267;DHT22;8241;48.786;9.250;2022-08-02T06:29:09;20.50;99.90
16267;DHT22;8241;48.786;9.250;2022-08-02T06:31:40;20.70;99.90
16267;DHT22;8241;48.786;9.250;2022-08-02T06:34:07;20.80;99.90
16267;DHT22;8241;48.786;9.250;2022-08-02T06:36:42;20.70;99.90
16267;DHT22;8241;48.786;9.250;2022-08-02T06:39:15;20.70;99.90
16267;DHT22;8241;48.786;9.250;2022-08-02T06:41:48;20.80;99.90
16267;DHT22;8241;48.786;9.250;2022-08-02T06:44:23;20.80;99.90
16267;DHT22;8241;48.786;9.250;2022-08-02T06:46:51;21.00;99.90
16267;DHT22;8241;48.786;9.250;2022-08-02T06:49:18;21.10;99.90
16267;DHT22;8241;48.786;9.250;2022-08-02T06:51:44;21.20;99.90
16267;DHT22;8241;48.786;9.250;2022-08-02T06:54:13;21.30;99.90
16267;DHT22;8241;48.786;9.250;2022-08-02T06:56:47;21.30;99.90
16267;DHT22;8241;48.786;9.250;2022-08-02T06:59:14;21.20;99.90
16267;DHT22;8241;48.786;9.250;2022-08-02T07:01:41;21.30;99.90
16267;DHT22;8241;48.786;9.250;2022-08-02T07:04:08;21.20;99.90
16267;DHT22;8241;48.786;9.250;2022-08-02T07:06:36;21.40;99.90
16267;DHT22;8241;48.786;9.250;2022-08-02T07:09:03;21.50;99.90
16267;DHT22;8241;48.786;9.250;2022-08-02T07:11:30;21.60;99.90
16267;DHT22;8241;48.786;9.250;2022-08-02T07:13:59;21.60;99.90
16267;DHT22;8241;48.786;9.250;2022-08-02T07:16:26;21.60;99.90
16267;DHT22;8241;48.786;9.250;2022-08-02T07:18:54;21.80;99.90
16267;DHT22;8241;48.786;9.250;2022-08-02T07:21:20;21.80;99.90
16267;DHT22;8241;48.786;9.250;2022-08-02T07:23:47;21.90;99.90
16267;DHT22;8241;48.786;9.250;2022-08-02T07:26:18;22.30;99.90
16267;DHT22;8241;48.786;9.250;2022-08-02T07:28:53;22.70;99.90
16267;DHT22;8241;48.786;9.250;2022-08-02T07:31:24;22.50;99.90
16267;DHT22;8241;48.786;9.250;2022-08-02T07:33:57;22.50;99.90
16267;DHT22;8241;48.786;9.250;2022-08-02T07:36:27;22.50;99.90
16267;DHT22;8241;48.786;9.250;2022-08-02T07:38:53;22.50;99.90
16267;DHT22;8241;48.786;9.250;2022-08-02T07:41:22;22.30;99.90
16267;DHT22;8241;48.786;9.250;2022-08-02T07:43:49;22.50;99.90
16267;DHT22;8241;48.786;9.250;2022-08-02T07:46:16;22.90;99.90
16267;DHT22;8241;48.786;9.250;2022-08-02T07:48:45;22.70;99.90
16267;DHT22;8241;48.786;9.250;2022-08-02T07:51:12;22.50;99.90
16267;DHT22;8241;48.786;9.250;2022-08-02T07:53:39;22.50;99.90
16267;DHT22;8241;48.786;9.250;2022-08-02T07:56:06;22.80;99.90
16267;DHT22;8241;48.786;9.250;2022-08-02T07:58:33;23.30;99.90
16267;DHT22;8241;48.786;9.250;2022-08-02T08:01:00;23.30;99.90
16267;DHT22;8241;48.786;9.250;2022-08-02T08:03:27;23.70;99.90
16267;DHT22;8241;48.786;9.250;2022-08-02T08:05:55;23.90;99.90
16267;DHT22;8241;48.786;9.250;2022-08-02T08:08:24;23.60;99.90
16267;DHT22;8241;48.786;9.250;2022-08-02T08:10:51;23.50;99.90
16267;DHT22;8241;48.786;9.250;2022-08-02T08:13:19;23.90;99.90
16267;DHT22;8241;48.786;9.250;2022-08-02T08:15:54;24.20;99.90
16267;DHT22;8241;48.786;9.250;2022-08-02T08:18:21;24.00;99.90
16267;DHT22;8241;48.786;9.250;2022-08-02T08:20:48;23.80;99.90
16267;DHT22;8241;48.786;9.250;2022-08-02T08:23:17;23.50;99.90
16267;DHT22;8241;48.786;9.250;2022-08-02T08:25:44;23.40;99.90
16267;DHT22;8241;48.786;9.250;2022-08-02T08:28:11;23.50;99.90
16267;DHT22;8241;48.786;9.250;2022-08-02T08:30:39;23.60;99.90
16267;DHT22;8241;48.786;9.250;2022-08-02T08:33:09;23.90;99.90
16267;DHT22;8241;48.786;9.250;2022-08-02T08:35:36;24.00;99.90
16267;DHT22;8241;48.786;9.250;2022-08-02T08:38:03;24.10;99.90
16267;DHT22;8241;48.786;9.250;2022-08-02T08:40:31;23.90;99.90
16267;DHT22;8241;48.786;9.250;2022-08-02T08:42:58;24.20;99.90
16267;DHT22;8241;48.786;9.250;2022-08-02T08:45:25;24.40;99.90
16267;DHT22;8241;48.786;9.250;2022-08-02T08:47:59;24.30;99.90
16267;DHT22;8241;48.786;9.250;2022-08-02T08:50:29;24.60;99.90
16267;DHT22;8241;48.786;9.250;2022-08-02T08:53:01;24.90;99.90
16267;DHT22;8241;48.786;9.250;2022-08-02T08:55:31;25.40;99.90
16267;DHT22;8241;48.786;9.250;2022-08-02T08:57:59;25.90;99.90
16267;DHT22;8241;48.786;9.250;2022-08-02T09:00:29;26.30;99.90
16267;DHT22;8241;48.786;9.250;2022-08-02T09:02:56;26.10;99.90
16267;DHT22;8241;48.786;9.250;2022-08-02T09:05:23;26.10;99.90
16267;DHT22;8241;48.786;9.250;2022-08-02T09:07:52;26.30;99.90
16267;DHT22;8241;48.786;9.250;2022-08-02T09:10:35;26.20;99.90
16267;DHT22;8241;48.786;9.250;2022-08-02T09:13:14;26.90;99.90
16267;DHT22;8241;48.786;9.250;2022-08-02T09:15:43;27.90;99.90
16267;DHT22;8241;48.786;9.250;2022-08-02T09:18:11;28.50;99.90
16267;DHT22;8241;48.786;9.250;2022-08-02T09:20:51;28.00;99.90
16267;DHT22;8241;48.786;9.250;2022-08-02T09:23:19;27.00;99.90
16267;DHT22;8241;48.786;9.250;2022-08-02T09:25:59;26.90;99.90
16267;DHT22;8241;48.786;9.250;2022-08-02T09:28:27;27.30;99.90
16267;DHT22;8241;48.786;9.250;2022-08-02T09:30:56;27.30;99.90
16267;DHT22;8241;48.786;9.250;2022-08-02T09:33:24;27.70;99.90
16267;DHT22;8241;48.786;9.250;2022-08-02T09:35:59;27.40;99.90
16267;DHT22;8241;48.786;9.250;2022-08-02T09:38:26;28.80;99.70
16267;DHT22;8241;48.786;9.250;2022-08-02T09:40:55;29.60;98.90
16267;DHT22;8241;48.786;9.250;2022-08-02T09:43:35;30.50;97.80
16267;DHT22;8241;48.786;9.250;2022-08-02T09:46:14;31.00;96.90
16267;DHT22;8241;48.786;9.250;2022-08-02T09:48:49;31.30;96.50
16267;DHT22;8241;48.786;9.250;2022-08-02T09:51:17;30.50;96.50
16267;DHT22;8241;48.786;9.250;2022-08-02T09:53:50;31.00;96.60
16267;DHT22;8241;48.786;9.250;2022-08-02T09:56:18;31.20;96.10
16267;DHT22;8241;48.786;9.250;2022-08-02T09:58:49;31.10;95.50
16267;DHT22;8241;48.786;9.250;2022-08-02T10:01:20;30.80;96.30
16267;DHT22;8241;48.786;9.250;2022-08-02T10:03:55;31.30;95.60
16267;DHT22;8241;48.786;9.250;2022-08-02T10:06:22;31.40;95.30
16267;DHT22;8241;48.786;9.250;2022-08-02T10:08:53;31.40;94.80
16267;DHT22;8241;48.786;9.250;2022-08-02T10:11:20;31.00;95.00
16267;DHT22;8241;48.786;9.250;2022-08-02T10:13:55;31.00;95.40
16267;DHT22;8241;48.786;9.250;2022-08-02T10:16:23;30.00;96.70
16267;DHT22;8241;48.786;9.250;2022-08-02T10:18:53;29.40;97.60
16267;DHT22;8241;48.786;9.250;2022-08-02T10:21:25;29.20;97.40
16267;DHT22;8241;48.786;9.250;2022-08-02T10:24:02;29.10;97.30
16267;DHT22;8241;48.786;9.250;2022-08-02T10:26:30;28.90;97.80
16267;DHT22;8241;48.786;9.250;2022-08-02T10:29:05;28.70;97.60
16267;DHT22;8241;48.786;9.250;2022-08-02T10:31:38;28.80;97.80
16267;DHT22;8241;48.786;9.250;2022-08-02T10:34:09;28.80;98.00
16267;DHT22;8241;48.786;9.250;2022-08-02T10:36:38;28.30;98.20
16267;DHT22;8241;48.786;9.250;2022-08-02T10:39:06;27.80;98.70
16267;DHT22;8241;48.786;9.250;2022-08-02T10:41:45;27.80;98.80
16267;DHT22;8241;48.786;9.250;2022-08-02T10:44:22;28.00;98.70
16267;DHT22;8241;48.786;9.250;2022-08-02T10:47:17;28.50;98.50
16267;DHT22;8241;48.786;9.250;2022-08-02T10:49:54;28.40;98.30
16267;DHT22;8241;48.786;9.250;2022-08-02T10:52:28;28.40;98.20
16267;DHT22;8241;48.786;9.250;2022-08-02T10:54:57;27.90;98.30
16267;DHT22;8241;48.786;9.250;2022-08-02T10:57:25;27.60;98.90
16267;DHT22;8241;48.786;9.250;2022-08-02T10:59:54;27.80;99.30
16267;DHT22;8241;48.786;9.250;2022-08-02T11:02:34;27.70;99.00
16267;DHT22;8241;48.786;9.250;2022-08-02T11:05:10;27.70;99.00
16267;DHT22;8241;48.786;9.250;2022-08-02T11:07:39;28.00;98.50
16267;DHT22;8241;48.786;9.250;2022-08-02T11:10:31;28.00;98.00
16267;DHT22;8241;48.786;9.250;2022-08-02T11:13:01;27.80;98.40
16267;DHT22;8241;48.786;9.250;2022-08-02T11:15:51;28.10;98.50
16267;DHT22;8241;48.786;9.250;2022-08-02T11:18:20;28.20;97.80
16267;DHT22;8241;48.786;9.250;2022-08-02T11:20:53;28.60;97.00
16267;DHT22;8241;48.786;9.250;2022-08-02T11:23:41;28.70;96.80
16267;DHT22;8241;48.786;9.250;2022-08-02T11:29:05;29.10;96.70
16267;DHT22;8241;48.786;9.250;2022-08-02T11:31:38;29.00;96.90
16267;DHT22;8241;48.786;9.250;2022-08-02T11:34:05;29.10;97.20
16267;DHT22;8241;48.786;9.250;2022-08-02T11:36:42;29.30;96.40
16267;DHT22;8241;48.786;9.250;2022-08-02T11:39:12;29.40;96.10
16267;DHT22;8241;48.786;9.250;2022-08-02T11:41:39;29.10;97.00
16267;DHT22;8241;48.786;9.250;2022-08-02T11:44:06;29.30;96.70
16267;DHT22;8241;48.786;9.250;2022-08-02T11:46:33;29.10;96.40
16267;DHT22;8241;48.786;9.250;2022-08-02T11:49:10;28.70;95.90
16267;DHT22;8241;48.786;9.250;2022-08-02T11:51:38;28.50;96.30
16267;DHT22;8241;48.786;9.250;2022-08-02T11:54:10;28.80;96.50
16267;DHT22;8241;48.786;9.250;2022-08-02T11:56:37;29.20;95.90
16267;DHT22;8241;48.786;9.250;2022-08-02T11:59:06;29.10;95.40
16267;DHT22;8241;48.786;9.250;2022-08-02T12:01:38;28.80;95.30
16267;DHT22;8241;48.786;9.250;2022-08-02T12:04:06;29.00;94.80
16267;DHT22;8241;48.786;9.250;2022-08-02T12:06:33;29.40;95.70
16267;DHT22;8241;48.786;9.250;2022-08-02T12:09:03;29.60;95.00
16267;DHT22;8241;48.786;9.250;2022-08-02T12:11:32;30.00;94.80
16267;DHT22;8241;48.786;9.250;2022-08-02T12:14:01;30.70;94.40
16267;DHT22;8241;48.786;9.250;2022-08-02T12:16:33;31.40;93.20
16267;DHT22;8241;48.786;9.250;2022-08-02T12:19:18;31.70;92.40
16267;DHT22;8241;48.786;9.250;2022-08-02T12:21:45;31.90;92.50
16267;DHT22;8241;48.786;9.250;2022-08-02T12:24:12;32.10;92.60
16267;DHT22;8241;48.786;9.250;2022-08-02T12:26:45;32.30;91.70
16267;DHT22;8241;48.786;9.250;2022-08-02T12:29:13;32.50;92.60
16267;DHT22;8241;48.786;9.250;2022-08-02T12:31:43;33.10;92.00
16267;DHT22;8241;48.786;9.250;2022-08-02T12:34:13;33.60;91.70
16267;DHT22;8241;48.786;9.250;2022-08-02T12:36:42;33.70;90.90
16267;DHT22;8241;48.786;9.250;2022-08-02T12:39:11;33.80;91.20
16267;DHT22;8241;48.786;9.250;2022-08-02T12:41:40;33.50;90.50
16267;DHT22;8241;48.786;9.250;2022-08-02T12:44:16;33.70;90.40
16267;DHT22;8241;48.786;9.250;2022-08-02T12:46:43;33.70;90.30
16267;DHT22;8241;48.786;9.250;2022-08-02T12:49:17;33.10;90.60
16267;DHT22;8241;48.786;9.250;2022-08-02T12:51:46;33.50;91.10
16267;DHT22;8241;48.786;9.250;2022-08-02T12:54:18;35.00;90.20
16267;DHT22;8241;48.786;9.250;2022-08-02T12:56:48;35.80;86.90
16267;DHT22;8241;48.786;9.250;2022-08-02T12:59:32;37.10;84.60
16267;DHT22;8241;48.786;9.250;2022-08-02T13:02:04;37.60;82.50
16267;DHT22;8241;48.786;9.250;2022-08-02T13:04:37;36.30;83.70
16267;DHT22;8241;48.786;9.250;2022-08-02T13:07:05;33.20;87.80
16267;DHT22;8241;48.786;9.250;2022-08-02T13:09:35;32.10;90.70
16267;DHT22;8241;48.786;9.250;2022-08-02T13:12:03;34.30;88.70
16267;DHT22;8241;48.786;9.250;2022-08-02T13:14:33;34.90;85.30
16267;DHT22;8241;48.786;9.250;2022-08-02T13:17:00;35.40;84.40
16267;DHT22;8241;48.786;9.250;2022-08-02T13:19:28;36.70;82.60
16267;DHT22;8241;48.786;9.250;2022-08-02T13:21:55;37.70;79.70
16267;DHT22;8241;48.786;9.250;2022-08-02T13:24:22;39.00;79.30
16267;DHT22;8241;48.786;9.250;2022-08-02T13:26:50;40.20;77.00
16267;DHT22;8241;48.786;9.250;2022-08-02T13:29:17;40.00;75.20
16267;DHT22;8241;48.786;9.250;2022-08-02T13:31:45;38.30;78.50
16267;DHT22;8241;48.786;9.250;2022-08-02T13:34:12;37.90;78.40
16267;DHT22;8241;48.786;9.250;2022-08-02T13:36:41;37.90;78.00
16267;DHT22;8241;48.786;9.250;2022-08-02T13:39:08;37.70;77.10
16267;DHT22;8241;48.786;9.250;2022-08-02T13:41:36;36.60;78.60
16267;DHT22;8241;48.786;9.250;2022-08-02T13:44:03;37.30;78.70
16267;DHT22;8241;48.786;9.250;2022-08-02T13:46:30;38.20;76.30
16267;DHT22;8241;48.786;9.250;2022-08-02T13:49:01;38.30;76.70
16267;DHT22;8241;48.786;9.250;2022-08-02T13:51:29;38.90;75.40
16267;DHT22;8241;48.786;9.250;2022-08-02T13:53:56;39.30;72.90
16267;DHT22;8241;48.786;9.250;2022-08-02T13:56:23;38.30;76.40
16267;DHT22;8241;48.786;9.250;2022-08-02T13:58:51;37.70;76.10
16267;DHT22;8241;48.786;9.250;2022-08-02T14:01:18;37.70;75.30
16267;DHT22;8241;48.786;9.250;2022-08-02T14:03:45;37.00;77.90
16267;DHT22;8241;48.786;9.250;2022-08-02T14:06:13;36.20;79.40
16267;DHT22;8241;48.786;9.250;2022-08-02T14:08:40;34.90;81.10
16267;DHT22;8241;48.786;9.250;2022-08-02T14:11:07;34.50;81.60
16267;DHT22;8241;48.786;9.250;2022-08-02T14:13:34;34.90;82.10
16267;DHT22;8241;48.786;9.250;2022-08-02T14:16:01;35.20;81.70
16267;DHT22;8241;48.786;9.250;2022-08-02T14:18:29;35.00;81.40
16267;DHT22;8241;48.786;9.250;2022-08-02T14:20:56;34.60;81.70
16267;DHT22;8241;48.786;9.250;2022-08-02T14:23:24;34.80;80.40
16267;DHT22;8241;48.786;9.250;2022-08-02T14:25:51;34.90;80.20
16267;DHT22;8241;48.786;9.250;2022-08-02T14:28:18;35.00;80.40
16267;DHT22;8241;48.786;9.250;2022-08-02T14:30:45;34.80;81.70
16267;DHT22;8241;48.786;9.250;2022-08-02T14:33:12;34.10;80.30
16267;DHT22;8241;48.786;9.250;2022-08-02T14:35:39;33.60;82.90
16267;DHT22;8241;48.786;9.250;2022-08-02T14:38:06;33.00;82.60
16267;DHT22;8241;48.786;9.250;2022-08-02T14:40:34;33.20;83.90
16267;DHT22;8241;48.786;9.250;2022-08-02T14:43:02;33.20;82.30
16267;DHT22;8241;48.786;9.250;2022-08-02T14:45:29;32.70;83.20
16267;DHT22;8241;48.786;9.250;2022-08-02T14:47:57;33.00;84.40
16267;DHT22;8241;48.786;9.250;2022-08-02T14:50:24;33.00;82.90
16267;DHT22;8241;48.786;9.250;2022-08-02T14:52:51;33.00;83.80
16267;DHT22;8241;48.786;9.250;2022-08-02T14:55:18;33.10;82.20
16267;DHT22;8241;48.786;9.250;2022-08-02T14:57:46;33.40;83.40
16267;DHT22;8241;48.786;9.250;2022-08-02T15:00:15;32.80;83.20
16267;DHT22;8241;48.786;9.250;2022-08-02T15:02:42;32.90;84.30
16267;DHT22;8241;48.786;9.250;2022-08-02T15:05:09;33.30;82.60
16267;DHT22;8241;48.786;9.250;2022-08-02T15:07:36;33.10;82.40
16267;DHT22;8241;48.786;9.250;2022-08-02T15:10:03;33.30;80.30
16267;DHT22;8241;48.786;9.250;2022-08-02T15:12:30;33.10;81.00
16267;DHT22;8241;48.786;9.250;2022-08-02T15:14:58;33.50;81.30
16267;DHT22;8241;48.786;9.250;2022-08-02T15:17:25;33.50;80.80
16267;DHT22;8241;48.786;9.250;2022-08-02T15:19:52;33.40;79.50
16267;DHT22;8241;48.786;9.250;2022-08-02T15:22:19;33.80;80.00
16267;DHT22;8241;48.786;9.250;2022-08-02T15:24:46;34.50;78.10
16267;DHT22;8241;48.786;9.250;2022-08-02T15:27:14;35.00;76.10
16267;DHT22;8241;48.786;9.250;2022-08-02T15:29:42;35.10;75.60
16267;DHT22;8241;48.786;9.250;2022-08-02T15:32:11;35.80;77.50
16267;DHT22;8241;48.786;9.250;2022-08-02T15:34:38;35.40;75.50
16267;DHT22;8241;48.786;9.250;2022-08-02T15:37:05;35.60;76.50
16267;DHT22;8241;48.786;9.250;2022-08-02T15:39:31;35.00;77.00
16267;DHT22;8241;48.786;9.250;2022-08-02T15:41:58;35.30;75.80
16267;DHT22;8241;48.786;9.250;2022-08-02T15:44:25;35.60;75.90
16267;DHT22;8241;48.786;9.250;2022-08-02T15:46:52;35.50;75.50
16267;DHT22;8241;48.786;9.250;2022-08-02T15:49:21;35.80;72.70
16267;DHT22;8241;48.786;9.250;2022-08-02T15:51:48;35.70;73.70
16267;DHT22;8241;48.786;9.250;2022-08-02T15:54:16;35.20;74.40
16267;DHT22;8241;48.786;9.250;2022-08-02T15:56:43;34.70;76.70
16267;DHT22;8241;48.786;9.250;2022-08-02T15:59:09;34.50;76.00
16267;DHT22;8241;48.786;9.250;2022-08-02T16:01:36;34.30;77.30